sensor_id;sensor_type;location;lat;lon;timestamp;P1;P2;P0
76043;PMS7003;64740;34.694;33.088;2023-11-19T00:00:41;3.5;2.1;0.7
76043;PMS7003;64740;34.694;33.088;2023-11-19T00:06:03;2.9;1.9;0.8
76043;PMS7003;64740;34.694;33.088;2023-11-19T00:11:13;3.9;2.2;0.9
76043;PMS7003;64740;34.694;33.088;2023-11-19T00:15:49;3.1;1.9;0.7
76043;PMS7003;64740;34.694;33.088;2023-11-19T00:20:39;3.5;1.9;0.7
76043;PMS7003;64740;34.694;33.088;2023-11-19T00:25:39;3.1;2.3;0.7
76043;PMS7003;64740;34.694;33.088;2023-11-19T00:31:01;4.1;2;0.8
76043;PMS7003;64740;34.694;33.088;2023-11-19T00:36:15;2.7;1.9;0.6
76043;PMS7003;64740;34.694;33.088;2023-11-19T00:41:01;3.6;1.8;0.6
76043;PMS7003;64740;34.694;33.088;2023-11-19T00:45:57;2.7;1.6;0.7
76043;PMS7003;64740;34.694;33.088;2023-11-19T00:50:49;3.4;2;0.5
76043;PMS7003;64740;34.694;33.088;2023-11-19T00:55:47;3.7;1.9;0.6
76043;PMS7003;64740;34.694;33.088;2023-11-19T01:01:13;3.2;1.5;0.4
76043;PMS7003;64740;34.694;33.088;2023-11-19T01:05:53;3.8;2.3;0.8
76043;PMS7003;64740;34.694;33.088;2023-11-19T01:10:51;3.7;2.3;0.7
76043;PMS7003;64740;34.694;33.088;2023-11-19T01:15:39;3.1;1.7;0.7
76043;PMS7003;64740;34.694;33.088;2023-11-19T01:21:01;3;1.8;0.6
76043;PMS7003;64740;34.694;33.088;2023-11-19T01:26:13;2.6;1.8;0.7
76043;PMS7003;64740;34.694;33.088;2023-11-19T01:31:01;2.8;1.5;0.6
76043;PMS7003;64740;34.694;33.088;2023-11-19T01:36:13;2.7;1.7;0.4
76043;PMS7003;64740;34.694;33.088;2023-11-19T01:41:05;2.4;1.3;0.3
76043;PMS7003;64740;34.694;33.088;2023-11-19T01:45:39;3;1.6;0.6
76043;PMS7003;64740;34.694;33.088;2023-11-19T01:51:03;2.3;1.5;0.4
76043;PMS7003;64740;34.694;33.088;2023-11-19T01:55:51;2.2;1.2;0.3
76043;PMS7003;64740;34.694;33.088;2023-11-19T02:00:41;2.4;1.6;0.4
76043;PMS7003;64740;34.694;33.088;2023-11-19T02:05:39;2.5;1.5;0.4
76043;PMS7003;64740;34.694;33.088;2023-11-19T02:11:01;2.9;1.4;0.6
76043;PMS7003;64740;34.694;33.088;2023-11-19T02:16:13;2.1;1.5;0.3
76043;PMS7003;64740;34.694;33.088;2023-11-19T02:20:51;2.7;1.3;0.5
76043;PMS7003;64740;34.694;33.088;2023-11-19T02:25:53;3.3;1.8;0.6
76043;PMS7003;64740;34.694;33.088;2023-11-19T02:30:53;2.7;1.6;0.5
76043;PMS7003;64740;34.694;33.088;2023-11-19T02:35:47;2.4;1.2;0.3
76043;PMS7003;64740;34.694;33.088;2023-11-19T02:41:03;3.3;1.7;0.5
76043;PMS7003;64740;34.694;33.088;2023-11-19T02:45:55;1.5;1.1;0.1
76043;PMS7003;64740;34.694;33.088;2023-11-19T02:50:51;3.8;1.4;0.3
76043;PMS7003;64740;34.694;33.088;2023-11-19T02:55:39;2.3;1.6;0.5
76043;PMS7003;64740;34.694;33.088;2023-11-19T03:01:03;3.1;1.6;0.4
76043;PMS7003;64740;34.694;33.088;2023-11-19T03:06:15;1.6;1.1;0.3
76043;PMS7003;64740;34.694;33.088;2023-11-19T03:10:51;3.2;1.4;0.5
76043;PMS7003;64740;34.694;33.088;2023-11-19T03:15:39;2.5;1.3;0.5
76043;PMS7003;64740;34.694;33.088;2023-11-19T03:20:51;2.2;1.4;0.2
76043;PMS7003;64740;34.694;33.088;2023-11-19T03:25:49;1.9;1.3;0.3
76043;PMS7003;64740;34.694;33.088;2023-11-19T03:31:13;3.3;1.7;0.4
76043;PMS7003;64740;34.694;33.088;2023-11-19T03:35:39;2.4;1.2;0.3
76043;PMS7003;64740;34.694;33.088;2023-11-19T03:40:39;2.7;1.6;0.6
76043;PMS7003;64740;34.694;33.088;2023-11-19T03:46:03;3.7;1.7;0.7
76043;PMS7003;64740;34.694;33.088;2023-11-19T03:51:01;2.9;1.7;0.6
76043;PMS7003;64740;34.694;33.088;2023-11-19T03:56:13;2.4;1.8;0.8
76043;PMS7003;64740;34.694;33.088;2023-11-19T04:00:39;3.3;2.1;1
76043;PMS7003;64740;34.694;33.088;2023-11-19T04:05:59;2.7;1.9;0.8
76043;PMS7003;64740;34.694;33.088;2023-11-19T04:10:47;2.7;2.1;1
76043;PMS7003;64740;34.694;33.088;2023-11-19T04:15:49;2.7;1.8;0.8
76043;PMS7003;64740;34.694;33.088;2023-11-19T04:21:01;2.4;1.6;0.6
76043;PMS7003;64740;34.694;33.088;2023-11-19T04:26:03;3.1;1.8;0.7
76043;PMS7003;64740;34.694;33.088;2023-11-19T04:30:41;2.8;1.6;0.8
76043;PMS7003;64740;34.694;33.088;2023-11-19T04:35:39;2.9;1.8;0.7
76043;PMS7003;64740;34.694;33.088;2023-11-19T04:40:45;2.9;1.8;0.8
76043;PMS7003;64740;34.694;33.088;2023-11-19T04:46:11;2.8;2;0.9
76043;PMS7003;64740;34.694;33.088;2023-11-19T04:50:51;3.1;1.7;0.6
76043;PMS7003;64740;34.694;33.088;2023-11-19T04:55:57;2.6;1.7;0.9
76043;PMS7003;64740;34.694;33.088;2023-11-19T05:00:53;2.8;1.8;0.7
76043;PMS7003;64740;34.694;33.088;2023-11-19T05:05:41;3.2;2.2;1
76043;PMS7003;64740;34.694;33.088;2023-11-19T05:11:11;3;1.9;0.7
76043;PMS7003;64740;34.694;33.088;2023-11-19T05:15:57;3.4;1.9;1.1
76043;PMS7003;64740;34.694;33.088;2023-11-19T05:20:47;3.1;2.4;1.1
76043;PMS7003;64740;34.694;33.088;2023-11-19T05:25:53;2.4;1.6;0.7
76043;PMS7003;64740;34.694;33.088;2023-11-19T05:30:57;2.8;1.7;0.7
76043;PMS7003;64740;34.694;33.088;2023-11-19T05:36:13;2.2;1.7;0.8
76043;PMS7003;64740;34.694;33.088;2023-11-19T05:40:51;2.5;1.8;0.8
76043;PMS7003;64740;34.694;33.088;2023-11-19T05:45:55;2.2;1.6;0.8
76043;PMS7003;64740;34.694;33.088;2023-11-19T05:50:49;2.5;1.7;0.9
76043;PMS7003;64740;34.694;33.088;2023-11-19T05:55:41;2.4;1.7;0.9
76043;PMS7003;64740;34.694;33.088;2023-11-19T06:01:15;2.4;1.6;0.6
76043;PMS7003;64740;34.694;33.088;2023-11-19T06:05:51;2.5;1.7;0.7
76043;PMS7003;64740;34.694;33.088;2023-11-19T06:10:41;3;1.9;0.6
76043;PMS7003;64740;34.694;33.088;2023-11-19T06:16:13;2.4;1.7;0.8
76043;PMS7003;64740;34.694;33.088;2023-11-19T06:20:40;2.6;1.7;0.7
76043;PMS7003;64740;34.694;33.088;2023-11-19T06:26:13;2.5;1.6;0.7
76043;PMS7003;64740;34.694;33.088;2023-11-19T06:31:13;2.8;1.8;0.9
76043;PMS7003;64740;34.694;33.088;2023-11-19T06:35:53;2.7;1.7;0.9
76043;PMS7003;64740;34.694;33.088;2023-11-19T07:56:13;2.7;2;0.9
76043;PMS7003;64740;34.694;33.088;2023-11-19T08:00:55;1.4;1.2;0.4
76043;PMS7003;64740;34.694;33.088;2023-11-19T08:06:13;2.1;1;0.5
76043;PMS7003;64740;34.694;33.088;2023-11-19T08:11:05;2;1.1;0.3
76043;PMS7003;64740;34.694;33.088;2023-11-19T08:15:55;1.9;1;0.3
76043;PMS7003;64740;34.694;33.088;2023-11-19T08:20:57;1.8;1;0.2
76043;PMS7003;64740;34.694;33.088;2023-11-19T08:25:49;1.5;1;0.3
76043;PMS7003;64740;34.694;33.088;2023-11-19T08:30:59;1.5;0.9;0.2
76043;PMS7003;64740;34.694;33.088;2023-11-19T08:35:39;1.6;1;0.1
76043;PMS7003;64740;34.694;33.088;2023-11-19T08:40:59;1.8;1.2;0.2
76043;PMS7003;64740;34.694;33.088;2023-11-19T08:46:11;1.2;0.8;0.1
76043;PMS7003;64740;34.694;33.088;2023-11-19T08:51:01;0.9;0.8;0.1
76043;PMS7003;64740;34.694;33.088;2023-11-19T08:56:12;1.5;0.9;0.3
76043;PMS7003;64740;34.694;33.088;2023-11-19T09:01:09;1.4;0.9;0.3
76043;PMS7003;64740;34.694;33.088;2023-11-19T09:05:45;1.1;0.9;0.2
76043;PMS7003;64740;34.694;33.088;2023-11-19T09:10:55;1.1;0.8;0.2
76043;PMS7003;64740;34.694;33.088;2023-11-19T09:15:41;1.7;1;0.2
76043;PMS7003;64740;34.694;33.088;2023-11-19T09:20:53;1.1;1.1;0.4
76043;PMS7003;64740;34.694;33.088;2023-11-19T09:25:51;1.3;0.8;0.1
76043;PMS7003;64740;34.694;33.088;2023-11-19T09:30:47;1;0.8;0.1
76043;PMS7003;64740;34.694;33.088;2023-11-19T09:36:09;1.7;0.8;0.1
76043;PMS7003;64740;34.694;33.088;2023-11-19T09:40:41;1.6;0.9;0.2
76043;PMS7003;64740;34.694;33.088;2023-11-19T09:46:12;1.6;0.7;0.2
76043;PMS7003;64740;34.694;33.088;2023-11-19T09:51:07;1.7;0.9;0.2
76043;PMS7003;64740;34.694;33.088;2023-11-19T09:55:59;1.9;1;0.4
76043;PMS7003;64740;34.694;33.088;2023-11-19T10:00:59;1.7;1;0.5
76043;PMS7003;64740;34.694;33.088;2023-11-19T10:05:39;2;1.1;0.5
76043;PMS7003;64740;34.694;33.088;2023-11-19T10:10:57;1.8;0.9;0.2
76043;PMS7003;64740;34.694;33.088;2023-11-19T10:16:03;2.2;1.1;0.5
76043;PMS7003;64740;34.694;33.088;2023-11-19T10:21:01;2.4;1.6;0.8
76043;PMS7003;64740;34.694;33.088;2023-11-19T10:26:03;1.5;1.4;0.8
76043;PMS7003;64740;34.694;33.088;2023-11-19T10:30:52;1.4;1.4;0.6
76043;PMS7003;64740;34.694;33.088;2023-11-19T10:36:11;2.9;1.5;0.7
76043;PMS7003;64740;34.694;33.088;2023-11-19T10:41:11;2.5;1.9;0.8
76043;PMS7003;64740;34.694;33.088;2023-11-19T10:46:08;2.8;2.2;0.8
76043;PMS7003;64740;34.694;33.088;2023-11-19T10:50:55;2.7;2.1;1
76043;PMS7003;64740;34.694;33.088;2023-11-19T10:55:59;3.2;2.1;0.8
76043;PMS7003;64740;34.694;33.088;2023-11-19T11:00:42;2.7;1.7;0.6
76043;PMS7003;64740;34.694;33.088;2023-11-19T11:05:53;2.4;1.8;0.9
76043;PMS7003;64740;34.694;33.088;2023-11-19T11:10:39;3.2;2.2;1
76043;PMS7003;64740;34.694;33.088;2023-11-19T11:16:09;2.8;1.6;0.9
76043;PMS7003;64740;34.694;33.088;2023-11-19T11:20:51;2.6;2.1;0.9
76043;PMS7003;64740;34.694;33.088;2023-11-19T11:26:14;2.3;1.8;0.9
76043;PMS7003;64740;34.694;33.088;2023-11-19T11:31:07;2.6;2.3;1.2
76043;PMS7003;64740;34.694;33.088;2023-11-19T11:36:13;2.4;1.6;0.8
76043;PMS7003;64740;34.694;33.088;2023-11-19T11:41:18;2.3;1.7;0.8
76043;PMS7003;64740;34.694;33.088;2023-11-19T11:45:41;3.3;1.8;0.8
76043;PMS7003;64740;34.694;33.088;2023-11-19T11:50:56;3;2.2;1.1
76043;PMS7003;64740;34.694;33.088;2023-11-19T11:55:55;2.5;1.9;1.1
76043;PMS7003;64740;34.694;33.088;2023-11-19T12:00:39;2.9;2.5;1.3
76043;PMS7003;64740;34.694;33.088;2023-11-19T12:06:03;2.7;2.1;1.2
76043;PMS7003;64740;34.694;33.088;2023-11-19T12:10:53;3;2.7;1.4
76043;PMS7003;64740;34.694;33.088;2023-11-19T12:16:11;3.6;2.8;1.5
76043;PMS7003;64740;34.694;33.088;2023-11-19T12:20:53;3.6;2.5;1.3
76043;PMS7003;64740;34.694;33.088;2023-11-19T12:45:53;3;2.3;1.2
76043;PMS7003;64740;34.694;33.088;2023-11-19T12:50:50;5.5;4.1;2.1
76043;PMS7003;64740;34.694;33.088;2023-11-19T12:56:07;4.1;3.2;1.8
76043;PMS7003;64740;34.694;33.088;2023-11-19T13:00:58;3;2.5;1.3
76043;PMS7003;64740;34.694;33.088;2023-11-19T13:06:11;2.9;2.1;1.2
76043;PMS7003;64740;34.694;33.088;2023-11-19T13:11:03;2.8;2;1.1
76043;PMS7003;64740;34.694;33.088;2023-11-19T13:16:11;3.4;2.7;1.4
76043;PMS7003;64740;34.694;33.088;2023-11-19T13:21:11;3.7;2.8;1.6
76043;PMS7003;64740;34.694;33.088;2023-11-19T13:25:45;4.7;4.2;2.3
76043;PMS7003;64740;34.694;33.088;2023-11-19T13:30:41;3.8;3.5;2.1
76043;PMS7003;64740;34.694;33.088;2023-11-19T13:35:41;3.4;2.6;1.6
76043;PMS7003;64740;34.694;33.088;2023-11-19T13:40:47;3.2;2.5;1.3
76043;PMS7003;64740;34.694;33.088;2023-11-19T13:46:03;2.7;2;0.9
76043;PMS7003;64740;34.694;33.088;2023-11-19T13:50:54;1.5;1.2;0.5
76043;PMS7003;64740;34.694;33.088;2023-11-19T13:56:13;2.1;1.3;0.6
76043;PMS7003;64740;34.694;33.088;2023-11-19T14:01:01;1.8;1.3;0.6
76043;PMS7003;64740;34.694;33.088;2023-11-19T14:06:11;2.3;1.7;0.7
76043;PMS7003;64740;34.694;33.088;2023-11-19T14:11:09;2.8;2.2;0.8
76043;PMS7003;64740;34.694;33.088;2023-11-19T14:15:47;3.6;2.6;1.5
76043;PMS7003;64740;34.694;33.088;2023-11-19T14:20:49;3.9;2.9;1.7
76043;PMS7003;64740;34.694;33.088;2023-11-19T14:25:39;4.1;3.1;1.9
76043;PMS7003;64740;34.694;33.088;2023-11-19T14:30:41;2.5;2.2;1.1
76043;PMS7003;64740;34.694;33.088;2023-11-19T14:36:01;2.7;2.2;1.1
76043;PMS7003;64740;34.694;33.088;2023-11-19T14:40:59;3.1;2.3;1.4
76043;PMS7003;64740;34.694;33.088;2023-11-19T14:46:11;2.1;1.7;0.9
76043;PMS7003;64740;34.694;33.088;2023-11-19T14:50:39;1.9;1.7;1
76043;PMS7003;64740;34.694;33.088;2023-11-19T14:56:11;2.2;1.9;0.8
76043;PMS7003;64740;34.694;33.088;2023-11-19T15:01:15;2.4;2.1;1.1
76043;PMS7003;64740;34.694;33.088;2023-11-19T15:05:47;2.3;1.6;0.7
76043;PMS7003;64740;34.694;33.088;2023-11-19T15:10:41;2.8;2.2;1.2
76043;PMS7003;64740;34.694;33.088;2023-11-19T15:15:41;2.2;1.9;0.8
76043;PMS7003;64740;34.694;33.088;2023-11-19T15:20:47;2.8;2.4;1.2
76043;PMS7003;64740;34.694;33.088;2023-11-19T15:26:11;3.1;2.4;1.1
76043;PMS7003;64740;34.694;33.088;2023-11-19T15:30:53;3.2;2.6;1.4
76043;PMS7003;64740;34.694;33.088;2023-11-19T15:36:11;3.6;2.5;1.3
76043;PMS7003;64740;34.694;33.088;2023-11-19T15:41:01;3.4;2.6;1.2
76043;PMS7003;64740;34.694;33.088;2023-11-19T15:46:09;3.3;2.7;1.3
76043;PMS7003;64740;34.694;33.088;2023-11-19T15:51:13;3.5;2.9;1.6
76043;PMS7003;64740;34.694;33.088;2023-11-19T15:55:45;4.2;3.4;2
76043;PMS7003;64740;34.694;33.088;2023-11-19T16:00:39;3.3;2.9;1.6
76043;PMS7003;64740;34.694;33.088;2023-11-19T16:05:39;4.8;3.6;2
76043;PMS7003;64740;34.694;33.088;2023-11-19T16:10:47;3.6;3.1;1.6
76043;PMS7003;64740;34.694;33.088;2023-11-19T16:16:01;7;5.5;2.8
76043;PMS7003;64740;34.694;33.088;2023-11-19T16:20:55;5.2;4.4;2.5
76043;PMS7003;64740;34.694;33.088;2023-11-19T17:06:11;4.7;3.7;2.1
76043;PMS7003;64740;34.694;33.088;2023-11-19T17:10:43;6;5.3;3.3
76043;PMS7003;64740;34.694;33.088;2023-11-19T17:16:13;5.3;4;2.3
76043;PMS7003;64740;34.694;33.088;2023-11-19T17:21:01;4.7;4.1;2.5
76043;PMS7003;64740;34.694;33.088;2023-11-19T17:26:13;5.1;3.9;2.1
76043;PMS7003;64740;34.694;33.088;2023-11-19T17:40:39;5.2;4.3;2.6
76043;PMS7003;64740;34.694;33.088;2023-11-19T17:45:49;6;4.5;2.9
76043;PMS7003;64740;34.694;33.088;2023-11-19T17:51:15;5.6;4.9;2.9
76043;PMS7003;64740;34.694;33.088;2023-11-19T17:56:03;5.7;4.5;2.5
76043;PMS7003;64740;34.694;33.088;2023-11-19T18:00:53;4.7;4.2;2.8
76043;PMS7003;64740;34.694;33.088;2023-11-19T18:06:14;4.6;3.8;2.4
76043;PMS7003;64740;34.694;33.088;2023-11-19T18:11:01;6.5;5.1;3.1
76043;PMS7003;64740;34.694;33.088;2023-11-19T18:16:13;6.2;4.8;2.6
76043;PMS7003;64740;34.694;33.088;2023-11-19T18:21:11;6.4;5;3.1
76043;PMS7003;64740;34.694;33.088;2023-11-19T18:25:49;6.8;5;2.9
76043;PMS7003;64740;34.694;33.088;2023-11-19T18:30:41;5.7;4.5;2.8
76043;PMS7003;64740;34.694;33.088;2023-11-19T18:35:39;6;5;2.7
76043;PMS7003;64740;34.694;33.088;2023-11-19T18:40:39;6.1;4.6;2.7
76043;PMS7003;64740;34.694;33.088;2023-11-19T18:46:03;5.1;4.4;2.6
76043;PMS7003;64740;34.694;33.088;2023-11-19T18:50:53;5.5;4.8;2.9
76043;PMS7003;64740;34.694;33.088;2023-11-19T18:55:55;6.9;4.7;2.6
76043;PMS7003;64740;34.694;33.088;2023-11-19T19:01:01;7.2;5.9;3.3
76043;PMS7003;64740;34.694;33.088;2023-11-19T19:05:51;5.6;5;2.9
76043;PMS7003;64740;34.694;33.088;2023-11-19T19:30:50;8.1;6;3.8
76043;PMS7003;64740;34.694;33.088;2023-11-19T19:36:03;8.5;6.1;3.7
76043;PMS7003;64740;34.694;33.088;2023-11-19T19:41:01;5.5;4.5;3
76043;PMS7003;64740;34.694;33.088;2023-11-19T19:46:13;6.5;5.4;3.1
76043;PMS7003;64740;34.694;33.088;2023-11-19T19:51:15;7.8;6.3;3.8
76043;PMS7003;64740;34.694;33.088;2023-11-19T19:56:15;7.6;6.2;4
76043;PMS7003;64740;34.694;33.088;2023-11-19T20:01:03;7;5.7;3.4
76043;PMS7003;64740;34.694;33.088;2023-11-19T20:06:01;5.2;4.4;2.6
76043;PMS7003;64740;34.694;33.088;2023-11-19T20:10:41;5;4.2;2.2
76043;PMS7003;64740;34.694;33.088;2023-11-19T20:15:39;6.4;4.9;3
76043;PMS7003;64740;34.694;33.088;2023-11-19T20:20:51;5.2;4.1;2.1
76043;PMS7003;64740;34.694;33.088;2023-11-19T20:26:13;4.9;4;2.2
76043;PMS7003;64740;34.694;33.088;2023-11-19T20:31:13;5.7;4.4;2.4
76043;PMS7003;64740;34.694;33.088;2023-11-19T20:36:03;5.1;4.4;2.7
76043;PMS7003;64740;34.694;33.088;2023-11-19T20:41:17;4.7;3.5;1.9
76043;PMS7003;64740;34.694;33.088;2023-11-19T20:45:49;4.5;3.6;2.1
76043;PMS7003;64740;34.694;33.088;2023-11-19T20:51:15;5.1;4.1;2.1
76043;PMS7003;64740;34.694;33.088;2023-11-19T20:56:03;5.6;4.3;2.4
76043;PMS7003;64740;34.694;33.088;2023-11-19T21:00:39;4.7;3.8;2.1
76043;PMS7003;64740;34.694;33.088;2023-11-19T21:05:47;5;4.1;2.3
76043;PMS7003;64740;34.694;33.088;2023-11-19T21:10:39;4.5;3.9;1.7
76043;PMS7003;64740;34.694;33.088;2023-11-19T21:16:15;4.4;3.7;1.9
76043;PMS7003;64740;34.694;33.088;2023-11-19T21:20:53;4.7;3.8;2.1
76043;PMS7003;64740;34.694;33.088;2023-11-19T21:25:49;5.3;4.2;2.2
76043;PMS7003;64740;34.694;33.088;2023-11-19T21:30:39;5.2;4;2.1
76043;PMS7003;64740;34.694;33.088;2023-11-19T21:36:01;5.3;3.9;2.2
76043;PMS7003;64740;34.694;33.088;2023-11-19T21:41:13;4.9;3.9;2.2
76043;PMS7003;64740;34.694;33.088;2023-11-19T21:46:13;5.9;4.1;2.4
76043;PMS7003;64740;34.694;33.088;2023-11-19T21:50:39;5.4;4.2;2.3
76043;PMS7003;64740;34.694;33.088;2023-11-19T21:55:41;4.5;3.6;2.1
76043;PMS7003;64740;34.694;33.088;2023-11-19T22:00:54;6;4.3;2.1
76043;PMS7003;64740;34.694;33.088;2023-11-19T22:06:15;5.2;4.3;2.3
76043;PMS7003;64740;34.694;33.088;2023-11-19T22:10:41;4.3;3.7;2.1
76043;PMS7003;64740;34.694;33.088;2023-11-19T22:15:55;5.4;4;2
76043;PMS7003;64740;34.694;33.088;2023-11-19T22:20:39;4.6;3.5;1.8
76043;PMS7003;64740;34.694;33.088;2023-11-19T22:26:01;4.8;3.7;1.8
76043;PMS7003;64740;34.694;33.088;2023-11-19T22:31:13;4.2;3.5;1.7
76043;PMS7003;64740;34.694;33.088;2023-11-19T22:36:03;5.1;3.7;2
76043;PMS7003;64740;34.694;33.088;2023-11-19T22:40:39;4.6;3.5;1.6
76043;PMS7003;64740;34.694;33.088;2023-11-19T22:45:55;4.5;3.7;2.2
76043;PMS7003;64740;34.694;33.088;2023-11-19T22:50:51;4.6;3.4;1.9
76043;PMS7003;64740;34.694;33.088;2023-11-19T22:56:13;4.7;3.4;1.9
76043;PMS7003;64740;34.694;33.088;2023-11-19T23:00:53;3.6;3;1.6
76043;PMS7003;64740;34.694;33.088;2023-11-19T23:05:49;4.3;3.6;1.6
76043;PMS7003;64740;34.694;33.088;2023-11-19T23:11:03;3.8;3;1.7
76043;PMS7003;64740;34.694;33.088;2023-11-19T23:15:39;4.1;3.1;1.6
76043;PMS7003;64740;34.694;33.088;2023-11-19T23:21:15;5.4;3.4;1.7
76043;PMS7003;64740;34.694;33.088;2023-11-19T23:26:03;4.6;3.2;1.7
76043;PMS7003;64740;34.694;33.088;2023-11-19T23:30:41;4.1;3;1.6
76043;PMS7003;64740;34.694;33.088;2023-11-19T23:35:41;4.3;3.5;1.7
76043;PMS7003;64740;34.694;33.088;2023-11-19T23:40:53;4.6;3.4;1.6
76043;PMS7003;64740;34.694;33.088;2023-11-19T23:46:13;3.7;3;1.6
76043;PMS7003;64740;34.694;33.088;2023-11-19T23:50:53;4.3;3.1;1.5
76043;PMS7003;64740;34.694;33.088;2023-11-19T23:55:51;4.7;3.7;1.7
